sensor_id;sensor_type;location;lat;lon;timestamp;P1;durP1;ratioP1;P2;durP2;ratioP2
12768;SDS011;6448;48.916;8.990;2022-08-19T00:00:12;7.93;;;7.32;;
12768;SDS011;6448;48.916;8.990;2022-08-19T00:01:15;8.05;;;7.45;;
12768;SDS011;6448;48.916;8.990;2022-08-19T00:02:18;8.00;;;7.40;;
12768;SDS011;6448;48.916;8.990;2022-08-19T00:03:20;8.15;;;7.45;;
12768;SDS011;6448;48.916;8.990;2022-08-19T00:04:21;8.48;;;7.88;;
12768;SDS011;6448;48.916;8.990;2022-08-19T00:05:25;8.40;;;7.80;;
12768;SDS011;6448;48.916;8.990;2022-08-19T00:06:26;7.90;;;7.30;;
12768;SDS011;6448;48.916;8.990;2022-08-19T00:07:30;7.80;;;7.20;;
12768;SDS011;6448;48.916;8.990;2022-08-19T00:08:31;8.07;;;7.45;;
12768;SDS011;6448;48.916;8.990;2022-08-19T00:09:32;7.70;;;7.10;;
12768;SDS011;6448;48.916;8.990;2022-08-19T00:10:33;7.85;;;7.15;;
12768;SDS011;6448;48.916;8.990;2022-08-19T00:11:35;8.03;;;7.33;;
12768;SDS011;6448;48.916;8.990;2022-08-19T00:12:37;7.85;;;7.30;;
12768;SDS011;6448;48.916;8.990;2022-08-19T00:13:39;8.13;;;7.53;;
12768;SDS011;6448;48.916;8.990;2022-08-19T00:14:40;7.82;;;7.25;;
12768;SDS011;6448;48.916;8.990;2022-08-19T00:15:42;8.18;;;7.57;;
12768;SDS011;6448;48.916;8.990;2022-08-19T00:16:45;7.90;;;7.30;;
12768;SDS011;6448;48.916;8.990;2022-08-19T00:17:49;8.38;;;7.78;;
12768;SDS011;6448;48.916;8.990;2022-08-19T00:18:49;8.30;;;7.70;;
12768;SDS011;6448;48.916;8.990;2022-08-19T00:19:51;8.18;;;7.57;;
12768;SDS011;6448;48.916;8.990;2022-08-19T00:20:52;8.32;;;7.72;;
12768;SDS011;6448;48.916;8.990;2022-08-19T00:21:54;8.30;;;7.70;;
12768;SDS011;6448;48.916;8.990;2022-08-19T00:22:56;8.10;;;7.50;;
12768;SDS011;6448;48.916;8.990;2022-08-19T00:23:58;8.23;;;7.63;;
12768;SDS011;6448;48.916;8.990;2022-08-19T00:24:59;8.15;;;7.55;;
12768;SDS011;6448;48.916;8.990;2022-08-19T00:26:00;8.38;;;7.75;;
12768;SDS011;6448;48.916;8.990;2022-08-19T00:27:02;8.10;;;7.50;;
12768;SDS011;6448;48.916;8.990;2022-08-19T00:28:03;8.77;;;8.02;;
12768;SDS011;6448;48.916;8.990;2022-08-19T00:29:05;8.13;;;7.53;;
12768;SDS011;6448;48.916;8.990;2022-08-19T00:30:09;8.48;;;7.88;;
12768;SDS011;6448;48.916;8.990;2022-08-19T00:31:11;8.30;;;7.70;;
12768;SDS011;6448;48.916;8.990;2022-08-19T00:32:13;8.50;;;7.80;;
12768;SDS011;6448;48.916;8.990;2022-08-19T00:33:16;8.10;;;7.50;;
12768;SDS011;6448;48.916;8.990;2022-08-19T00:34:17;8.38;;;7.78;;
12768;SDS011;6448;48.916;8.990;2022-08-19T00:35:19;8.40;;;7.80;;
12768;SDS011;6448;48.916;8.990;2022-08-19T00:36:20;8.73;;;8.13;;
12768;SDS011;6448;48.916;8.990;2022-08-19T00:37:22;8.40;;;7.80;;
12768;SDS011;6448;48.916;8.990;2022-08-19T00:38:25;8.02;;;7.43;;
12768;SDS011;6448;48.916;8.990;2022-08-19T00:39:27;8.25;;;7.65;;
12768;SDS011;6448;48.916;8.990;2022-08-19T00:40:28;8.00;;;7.40;;
12768;SDS011;6448;48.916;8.990;2022-08-19T00:41:31;8.02;;;7.43;;
12768;SDS011;6448;48.916;8.990;2022-08-19T00:42:32;8.43;;;7.73;;
12768;SDS011;6448;48.916;8.990;2022-08-19T00:43:34;8.73;;;8.03;;
12768;SDS011;6448;48.916;8.990;2022-08-19T00:44:35;8.70;;;8.10;;
12768;SDS011;6448;48.916;8.990;2022-08-19T00:45:36;8.57;;;7.97;;
12768;SDS011;6448;48.916;8.990;2022-08-19T00:46:38;8.50;;;7.85;;
12768;SDS011;6448;48.916;8.990;2022-08-19T00:47:42;8.57;;;7.88;;
12768;SDS011;6448;48.916;8.990;2022-08-19T00:48:45;8.65;;;8.05;;
12768;SDS011;6448;48.916;8.990;2022-08-19T00:49:47;8.80;;;8.20;;
12768;SDS011;6448;48.916;8.990;2022-08-19T00:50:51;8.35;;;7.75;;
12768;SDS011;6448;48.916;8.990;2022-08-19T00:51:55;8.73;;;8.13;;
12768;SDS011;6448;48.916;8.990;2022-08-19T00:53:01;8.55;;;7.93;;
12768;SDS011;6448;48.916;8.990;2022-08-19T00:54:04;9.25;;;8.45;;
12768;SDS011;6448;48.916;8.990;2022-08-19T00:55:07;9.30;;;8.60;;
12768;SDS011;6448;48.916;8.990;2022-08-19T00:56:11;9.20;;;8.55;;
12768;SDS011;6448;48.916;8.990;2022-08-19T00:57:14;9.20;;;8.50;;
12768;SDS011;6448;48.916;8.990;2022-08-19T00:58:17;8.88;;;8.27;;
12768;SDS011;6448;48.916;8.990;2022-08-19T00:59:21;9.00;;;8.33;;
12768;SDS011;6448;48.916;8.990;2022-08-19T01:00:23;9.20;;;8.50;;
12768;SDS011;6448;48.916;8.990;2022-08-19T01:01:26;8.75;;;8.07;;
12768;SDS011;6448;48.916;8.990;2022-08-19T01:02:27;9.20;;;8.50;;
12768;SDS011;6448;48.916;8.990;2022-08-19T01:03:30;9.30;;;8.60;;
12768;SDS011;6448;48.916;8.990;2022-08-19T01:04:32;9.47;;;8.77;;
12768;SDS011;6448;48.916;8.990;2022-08-19T01:05:34;10.27;;;9.48;;
12768;SDS011;6448;48.916;8.990;2022-08-19T01:06:36;9.80;;;9.10;;
12768;SDS011;6448;48.916;8.990;2022-08-19T01:07:41;9.60;;;8.90;;
12768;SDS011;6448;48.916;8.990;2022-08-19T01:08:42;9.50;;;8.80;;
12768;SDS011;6448;48.916;8.990;2022-08-19T01:09:44;9.80;;;9.10;;
12768;SDS011;6448;48.916;8.990;2022-08-19T01:10:46;9.48;;;8.77;;
12768;SDS011;6448;48.916;8.990;2022-08-19T01:11:50;10.17;;;9.47;;
12768;SDS011;6448;48.916;8.990;2022-08-19T01:12:52;10.13;;;9.32;;
12768;SDS011;6448;48.916;8.990;2022-08-19T01:13:56;9.82;;;9.13;;
12768;SDS011;6448;48.916;8.990;2022-08-19T01:14:57;9.32;;;8.63;;
12768;SDS011;6448;48.916;8.990;2022-08-19T01:16:01;10.02;;;9.32;;
12768;SDS011;6448;48.916;8.990;2022-08-19T01:17:04;9.48;;;8.77;;
12768;SDS011;6448;48.916;8.990;2022-08-19T01:18:08;9.63;;;8.90;;
12768;SDS011;6448;48.916;8.990;2022-08-19T01:19:12;9.73;;;9.02;;
12768;SDS011;6448;48.916;8.990;2022-08-19T01:20:21;9.43;;;8.73;;
12768;SDS011;6448;48.916;8.990;2022-08-19T01:21:25;9.63;;;8.93;;
12768;SDS011;6448;48.916;8.990;2022-08-19T01:22:32;9.32;;;8.70;;
12768;SDS011;6448;48.916;8.990;2022-08-19T01:23:37;10.50;;;9.70;;
12768;SDS011;6448;48.916;8.990;2022-08-19T01:24:44;10.23;;;9.43;;
12768;SDS011;6448;48.916;8.990;2022-08-19T01:25:46;10.43;;;9.63;;
12768;SDS011;6448;48.916;8.990;2022-08-19T01:26:50;9.60;;;8.90;;
12768;SDS011;6448;48.916;8.990;2022-08-19T01:27:51;9.82;;;9.02;;
12768;SDS011;6448;48.916;8.990;2022-08-19T01:28:54;9.80;;;9.10;;
12768;SDS011;6448;48.916;8.990;2022-08-19T01:29:57;10.10;;;9.40;;
12768;SDS011;6448;48.916;8.990;2022-08-19T01:30:59;9.55;;;8.85;;
12768;SDS011;6448;48.916;8.990;2022-08-19T01:32:00;9.87;;;9.17;;
12768;SDS011;6448;48.916;8.990;2022-08-19T01:33:02;9.70;;;9.00;;
12768;SDS011;6448;48.916;8.990;2022-08-19T01:34:05;10.05;;;9.35;;
12768;SDS011;6448;48.916;8.990;2022-08-19T01:35:08;10.07;;;9.38;;
12768;SDS011;6448;48.916;8.990;2022-08-19T01:36:11;10.93;;;10.13;;
12768;SDS011;6448;48.916;8.990;2022-08-19T01:37:14;10.23;;;9.38;;
12768;SDS011;6448;48.916;8.990;2022-08-19T01:38:21;9.85;;;9.15;;
12768;SDS011;6448;48.916;8.990;2022-08-19T01:39:26;10.18;;;9.48;;
12768;SDS011;6448;48.916;8.990;2022-08-19T01:40:27;10.25;;;9.45;;
12768;SDS011;6448;48.916;8.990;2022-08-19T01:41:33;10.60;;;9.80;;
12768;SDS011;6448;48.916;8.990;2022-08-19T01:42:34;10.10;;;9.40;;
12768;SDS011;6448;48.916;8.990;2022-08-19T01:43:37;9.82;;;9.13;;
12768;SDS011;6448;48.916;8.990;2022-08-19T01:44:38;9.77;;;9.07;;
12768;SDS011;6448;48.916;8.990;2022-08-19T01:45:41;9.75;;;9.05;;
12768;SDS011;6448;48.916;8.990;2022-08-19T01:46:42;10.07;;;9.38;;
12768;SDS011;6448;48.916;8.990;2022-08-19T01:47:44;10.45;;;9.65;;
12768;SDS011;6448;48.916;8.990;2022-08-19T01:48:46;10.73;;;9.93;;
12768;SDS011;6448;48.916;8.990;2022-08-19T01:49:48;10.20;;;9.50;;
12768;SDS011;6448;48.916;8.990;2022-08-19T01:50:48;10.60;;;9.80;;
12768;SDS011;6448;48.916;8.990;2022-08-19T01:51:51;10.27;;;9.48;;
12768;SDS011;6448;48.916;8.990;2022-08-19T01:52:53;10.00;;;9.30;;
12768;SDS011;6448;48.916;8.990;2022-08-19T01:53:56;10.77;;;9.98;;
12768;SDS011;6448;48.916;8.990;2022-08-19T01:54:57;11.07;;;10.27;;
12768;SDS011;6448;48.916;8.990;2022-08-19T01:55:59;10.75;;;9.95;;
12768;SDS011;6448;48.916;8.990;2022-08-19T01:57:02;10.68;;;9.88;;
12768;SDS011;6448;48.916;8.990;2022-08-19T01:58:07;10.30;;;9.45;;
12768;SDS011;6448;48.916;8.990;2022-08-19T01:59:12;10.65;;;9.85;;
12768;SDS011;6448;48.916;8.990;2022-08-19T02:00:17;11.25;;;10.45;;
12768;SDS011;6448;48.916;8.990;2022-08-19T02:01:19;10.57;;;9.77;;
12768;SDS011;6448;48.916;8.990;2022-08-19T02:02:21;10.70;;;9.90;;
12768;SDS011;6448;48.916;8.990;2022-08-19T02:03:22;11.05;;;10.25;;
12768;SDS011;6448;48.916;8.990;2022-08-19T02:04:24;11.25;;;10.45;;
12768;SDS011;6448;48.916;8.990;2022-08-19T02:05:26;11.50;;;10.63;;
12768;SDS011;6448;48.916;8.990;2022-08-19T02:06:29;11.10;;;10.30;;
12768;SDS011;6448;48.916;8.990;2022-08-19T02:07:30;11.05;;;10.25;;
12768;SDS011;6448;48.916;8.990;2022-08-19T02:08:33;11.32;;;10.45;;
12768;SDS011;6448;48.916;8.990;2022-08-19T02:09:38;10.90;;;10.10;;
12768;SDS011;6448;48.916;8.990;2022-08-19T02:10:40;11.02;;;10.23;;
12768;SDS011;6448;48.916;8.990;2022-08-19T02:11:42;10.80;;;10.00;;
12768;SDS011;6448;48.916;8.990;2022-08-19T02:12:44;10.82;;;10.02;;
12768;SDS011;6448;48.916;8.990;2022-08-19T02:13:45;10.98;;;10.18;;
12768;SDS011;6448;48.916;8.990;2022-08-19T02:14:47;10.73;;;9.93;;
12768;SDS011;6448;48.916;8.990;2022-08-19T02:15:48;11.50;;;10.70;;
12768;SDS011;6448;48.916;8.990;2022-08-19T02:16:50;11.20;;;10.40;;
12768;SDS011;6448;48.916;8.990;2022-08-19T02:17:51;11.10;;;10.30;;
12768;SDS011;6448;48.916;8.990;2022-08-19T02:18:53;11.25;;;10.45;;
12768;SDS011;6448;48.916;8.990;2022-08-19T02:19:54;11.52;;;10.63;;
12768;SDS011;6448;48.916;8.990;2022-08-19T02:20:56;11.05;;;10.25;;
12768;SDS011;6448;48.916;8.990;2022-08-19T02:21:57;11.05;;;10.25;;
12768;SDS011;6448;48.916;8.990;2022-08-19T02:22:59;10.80;;;9.95;;
12768;SDS011;6448;48.916;8.990;2022-08-19T02:24:01;11.48;;;10.68;;
12768;SDS011;6448;48.916;8.990;2022-08-19T02:25:05;10.93;;;10.13;;
12768;SDS011;6448;48.916;8.990;2022-08-19T02:26:07;10.95;;;10.15;;
12768;SDS011;6448;48.916;8.990;2022-08-19T02:27:09;11.43;;;10.52;;
12768;SDS011;6448;48.916;8.990;2022-08-19T02:28:10;11.20;;;10.40;;
12768;SDS011;6448;48.916;8.990;2022-08-19T02:29:12;10.93;;;10.13;;
12768;SDS011;6448;48.916;8.990;2022-08-19T02:30:14;11.43;;;10.52;;
12768;SDS011;6448;48.916;8.990;2022-08-19T02:31:18;11.13;;;10.32;;
12768;SDS011;6448;48.916;8.990;2022-08-19T02:32:20;11.00;;;10.20;;
12768;SDS011;6448;48.916;8.990;2022-08-19T02:33:22;11.60;;;10.70;;
12768;SDS011;6448;48.916;8.990;2022-08-19T02:34:23;11.27;;;10.48;;
12768;SDS011;6448;48.916;8.990;2022-08-19T02:35:25;11.10;;;10.30;;
12768;SDS011;6448;48.916;8.990;2022-08-19T02:36:26;10.85;;;10.00;;
12768;SDS011;6448;48.916;8.990;2022-08-19T02:37:28;11.65;;;10.85;;
12768;SDS011;6448;48.916;8.990;2022-08-19T02:38:48;11.95;;;11.05;;
12768;SDS011;6448;48.916;8.990;2022-08-19T02:39:49;11.32;;;10.52;;
12768;SDS011;6448;48.916;8.990;2022-08-19T02:40:51;11.52;;;10.63;;
12768;SDS011;6448;48.916;8.990;2022-08-19T02:41:54;12.23;;;11.32;;
12768;SDS011;6448;48.916;8.990;2022-08-19T02:42:56;11.82;;;10.93;;
12768;SDS011;6448;48.916;8.990;2022-08-19T02:43:57;11.15;;;10.35;;
12768;SDS011;6448;48.916;8.990;2022-08-19T02:45:01;11.90;;;11.00;;
12768;SDS011;6448;48.916;8.990;2022-08-19T02:46:02;11.48;;;10.68;;
12768;SDS011;6448;48.916;8.990;2022-08-19T02:47:12;11.15;;;10.32;;
12768;SDS011;6448;48.916;8.990;2022-08-19T02:48:14;11.02;;;10.23;;
12768;SDS011;6448;48.916;8.990;2022-08-19T02:49:17;11.93;;;11.13;;
12768;SDS011;6448;48.916;8.990;2022-08-19T02:50:19;12.00;;;11.10;;
12768;SDS011;6448;48.916;8.990;2022-08-19T02:51:22;11.52;;;10.73;;
12768;SDS011;6448;48.916;8.990;2022-08-19T02:52:24;11.73;;;10.83;;
12768;SDS011;6448;48.916;8.990;2022-08-19T02:53:27;12.05;;;11.15;;
12768;SDS011;6448;48.916;8.990;2022-08-19T02:54:28;11.80;;;10.80;;
12768;SDS011;6448;48.916;8.990;2022-08-19T02:55:30;11.43;;;10.63;;
12768;SDS011;6448;48.916;8.990;2022-08-19T02:56:33;12.10;;;11.20;;
12768;SDS011;6448;48.916;8.990;2022-08-19T02:57:36;11.90;;;11.00;;
12768;SDS011;6448;48.916;8.990;2022-08-19T02:58:37;11.57;;;10.77;;
12768;SDS011;6448;48.916;8.990;2022-08-19T02:59:39;11.93;;;11.02;;
12768;SDS011;6448;48.916;8.990;2022-08-19T03:00:43;12.00;;;11.10;;
12768;SDS011;6448;48.916;8.990;2022-08-19T03:01:46;12.40;;;11.40;;
12768;SDS011;6448;48.916;8.990;2022-08-19T03:02:47;12.07;;;11.18;;
12768;SDS011;6448;48.916;8.990;2022-08-19T03:03:48;12.60;;;11.70;;
12768;SDS011;6448;48.916;8.990;2022-08-19T03:04:50;12.20;;;11.30;;
12768;SDS011;6448;48.916;8.990;2022-08-19T03:06:01;11.52;;;10.73;;
12768;SDS011;6448;48.916;8.990;2022-08-19T03:07:03;12.02;;;11.13;;
12768;SDS011;6448;48.916;8.990;2022-08-19T03:08:05;12.00;;;11.13;;
12768;SDS011;6448;48.916;8.990;2022-08-19T03:09:08;11.80;;;11.00;;
12768;SDS011;6448;48.916;8.990;2022-08-19T03:10:10;11.65;;;10.75;;
12768;SDS011;6448;48.916;8.990;2022-08-19T03:11:14;12.30;;;11.40;;
12768;SDS011;6448;48.916;8.990;2022-08-19T03:12:19;11.38;;;10.57;;
12768;SDS011;6448;48.916;8.990;2022-08-19T03:13:19;12.25;;;11.35;;
12768;SDS011;6448;48.916;8.990;2022-08-19T03:14:21;12.10;;;11.15;;
12768;SDS011;6448;48.916;8.990;2022-08-19T03:15:23;11.90;;;11.00;;
12768;SDS011;6448;48.916;8.990;2022-08-19T03:16:25;11.90;;;11.10;;
12768;SDS011;6448;48.916;8.990;2022-08-19T03:17:27;12.50;;;11.60;;
12768;SDS011;6448;48.916;8.990;2022-08-19T03:18:29;12.15;;;11.25;;
12768;SDS011;6448;48.916;8.990;2022-08-19T03:19:30;12.43;;;11.52;;
12768;SDS011;6448;48.916;8.990;2022-08-19T03:20:32;12.35;;;11.35;;
12768;SDS011;6448;48.916;8.990;2022-08-19T03:21:33;12.68;;;11.77;;
12768;SDS011;6448;48.916;8.990;2022-08-19T03:22:36;12.75;;;11.73;;
12768;SDS011;6448;48.916;8.990;2022-08-19T03:23:36;11.97;;;11.17;;
12768;SDS011;6448;48.916;8.990;2022-08-19T03:24:39;12.15;;;11.25;;
12768;SDS011;6448;48.916;8.990;2022-08-19T03:25:41;12.82;;;11.93;;
12768;SDS011;6448;48.916;8.990;2022-08-19T03:26:45;12.20;;;11.30;;
12768;SDS011;6448;48.916;8.990;2022-08-19T03:27:48;11.98;;;11.10;;
12768;SDS011;6448;48.916;8.990;2022-08-19T03:28:50;12.30;;;11.40;;
12768;SDS011;6448;48.916;8.990;2022-08-19T03:29:51;12.32;;;11.43;;
12768;SDS011;6448;48.916;8.990;2022-08-19T03:30:57;12.70;;;11.80;;
12768;SDS011;6448;48.916;8.990;2022-08-19T03:31:59;12.60;;;11.70;;
12768;SDS011;6448;48.916;8.990;2022-08-19T03:33:03;12.50;;;11.60;;
12768;SDS011;6448;48.916;8.990;2022-08-19T03:34:04;12.70;;;11.70;;
12768;SDS011;6448;48.916;8.990;2022-08-19T03:35:06;12.88;;;11.98;;
12768;SDS011;6448;48.916;8.990;2022-08-19T03:36:08;12.60;;;11.70;;
12768;SDS011;6448;48.916;8.990;2022-08-19T03:37:13;12.30;;;11.50;;
12768;SDS011;6448;48.916;8.990;2022-08-19T03:38:13;12.57;;;11.68;;
12768;SDS011;6448;48.916;8.990;2022-08-19T03:39:15;12.32;;;11.43;;
12768;SDS011;6448;48.916;8.990;2022-08-19T03:40:17;12.50;;;11.60;;
12768;SDS011;6448;48.916;8.990;2022-08-19T03:41:21;11.45;;;10.65;;
12768;SDS011;6448;48.916;8.990;2022-08-19T03:42:24;11.70;;;10.80;;
12768;SDS011;6448;48.916;8.990;2022-08-19T03:43:28;11.85;;;11.02;;
12768;SDS011;6448;48.916;8.990;2022-08-19T03:44:29;12.32;;;11.43;;
12768;SDS011;6448;48.916;8.990;2022-08-19T03:45:32;11.70;;;10.90;;
12768;SDS011;6448;48.916;8.990;2022-08-19T03:46:33;12.07;;;11.18;;
12768;SDS011;6448;48.916;8.990;2022-08-19T03:47:35;12.10;;;11.13;;
12768;SDS011;6448;48.916;8.990;2022-08-19T03:48:38;11.50;;;10.68;;
12768;SDS011;6448;48.916;8.990;2022-08-19T03:49:40;12.00;;;11.10;;
12768;SDS011;6448;48.916;8.990;2022-08-19T03:50:42;11.65;;;10.75;;
12768;SDS011;6448;48.916;8.990;2022-08-19T03:51:43;11.93;;;11.10;;
12768;SDS011;6448;48.916;8.990;2022-08-19T03:52:47;12.40;;;11.50;;
12768;SDS011;6448;48.916;8.990;2022-08-19T03:53:48;11.57;;;10.77;;
12768;SDS011;6448;48.916;8.990;2022-08-19T03:54:50;11.63;;;10.83;;
12768;SDS011;6448;48.916;8.990;2022-08-19T03:55:51;11.98;;;11.15;;
12768;SDS011;6448;48.916;8.990;2022-08-19T03:56:54;11.82;;;10.93;;
12768;SDS011;6448;48.916;8.990;2022-08-19T03:57:56;12.32;;;11.43;;
12768;SDS011;6448;48.916;8.990;2022-08-19T03:58:59;12.23;;;11.30;;
12768;SDS011;6448;48.916;8.990;2022-08-19T04:00:01;11.93;;;11.03;;
12768;SDS011;6448;48.916;8.990;2022-08-19T04:01:07;12.20;;;11.30;;
12768;SDS011;6448;48.916;8.990;2022-08-19T04:02:09;11.90;;;11.00;;
12768;SDS011;6448;48.916;8.990;2022-08-19T04:03:12;11.93;;;11.02;;
12768;SDS011;6448;48.916;8.990;2022-08-19T04:04:13;12.27;;;11.38;;
12768;SDS011;6448;48.916;8.990;2022-08-19T04:05:15;11.98;;;11.13;;
12768;SDS011;6448;48.916;8.990;2022-08-19T04:06:16;11.60;;;10.70;;
12768;SDS011;6448;48.916;8.990;2022-08-19T04:07:21;12.05;;;11.15;;
12768;SDS011;6448;48.916;8.990;2022-08-19T04:08:21;11.50;;;10.70;;
12768;SDS011;6448;48.916;8.990;2022-08-19T04:09:23;12.27;;;11.35;;
12768;SDS011;6448;48.916;8.990;2022-08-19T04:10:25;12.13;;;11.23;;
12768;SDS011;6448;48.916;8.990;2022-08-19T04:11:28;11.98;;;11.18;;
12768;SDS011;6448;48.916;8.990;2022-08-19T04:12:30;12.63;;;11.73;;
12768;SDS011;6448;48.916;8.990;2022-08-19T04:13:32;12.63;;;11.73;;
12768;SDS011;6448;48.916;8.990;2022-08-19T04:14:34;12.07;;;11.17;;
12768;SDS011;6448;48.916;8.990;2022-08-19T04:15:38;12.75;;;11.85;;
12768;SDS011;6448;48.916;8.990;2022-08-19T04:16:41;12.27;;;11.48;;
12768;SDS011;6448;48.916;8.990;2022-08-19T04:17:44;12.52;;;11.63;;
12768;SDS011;6448;48.916;8.990;2022-08-19T04:18:45;12.60;;;11.70;;
12768;SDS011;6448;48.916;8.990;2022-08-19T04:19:50;12.20;;;11.30;;
12768;SDS011;6448;48.916;8.990;2022-08-19T04:20:51;12.77;;;11.87;;
12768;SDS011;6448;48.916;8.990;2022-08-19T04:21:53;11.80;;;11.00;;
12768;SDS011;6448;48.916;8.990;2022-08-19T04:22:56;13.00;;;12.00;;
12768;SDS011;6448;48.916;8.990;2022-08-19T04:23:58;12.98;;;12.07;;
12768;SDS011;6448;48.916;8.990;2022-08-19T04:24:59;12.48;;;11.57;;
12768;SDS011;6448;48.916;8.990;2022-08-19T04:26:00;12.38;;;11.48;;
12768;SDS011;6448;48.916;8.990;2022-08-19T04:27:02;12.52;;;11.63;;
12768;SDS011;6448;48.916;8.990;2022-08-19T04:28:06;12.82;;;11.93;;
12768;SDS011;6448;48.916;8.990;2022-08-19T04:29:10;12.50;;;11.60;;
12768;SDS011;6448;48.916;8.990;2022-08-19T04:30:15;11.95;;;11.05;;
12768;SDS011;6448;48.916;8.990;2022-08-19T04:31:18;12.60;;;11.60;;
12768;SDS011;6448;48.916;8.990;2022-08-19T04:32:21;12.27;;;11.38;;
12768;SDS011;6448;48.916;8.990;2022-08-19T04:33:23;12.20;;;11.25;;
12768;SDS011;6448;48.916;8.990;2022-08-19T04:34:27;12.35;;;11.45;;
12768;SDS011;6448;48.916;8.990;2022-08-19T04:35:33;12.35;;;11.45;;
12768;SDS011;6448;48.916;8.990;2022-08-19T04:36:36;12.65;;;11.75;;
12768;SDS011;6448;48.916;8.990;2022-08-19T04:37:39;12.07;;;11.18;;
12768;SDS011;6448;48.916;8.990;2022-08-19T04:38:41;12.18;;;11.27;;
12768;SDS011;6448;48.916;8.990;2022-08-19T04:39:42;12.52;;;11.63;;
12768;SDS011;6448;48.916;8.990;2022-08-19T04:41:02;12.85;;;11.85;;
12768;SDS011;6448;48.916;8.990;2022-08-19T04:42:22;13.02;;;12.02;;
12768;SDS011;6448;48.916;8.990;2022-08-19T04:43:41;13.13;;;12.18;;
12768;SDS011;6448;48.916;8.990;2022-08-19T04:44:48;12.40;;;11.50;;
12768;SDS011;6448;48.916;8.990;2022-08-19T04:45:52;12.50;;;11.60;;
12768;SDS011;6448;48.916;8.990;2022-08-19T04:46:53;12.55;;;11.65;;
12768;SDS011;6448;48.916;8.990;2022-08-19T04:47:56;13.13;;;12.13;;
12768;SDS011;6448;48.916;8.990;2022-08-19T04:48:57;13.07;;;12.07;;
12768;SDS011;6448;48.916;8.990;2022-08-19T04:49:59;12.50;;;11.60;;
12768;SDS011;6448;48.916;8.990;2022-08-19T04:51:00;12.75;;;11.85;;
12768;SDS011;6448;48.916;8.990;2022-08-19T04:52:02;12.50;;;11.60;;
12768;SDS011;6448;48.916;8.990;2022-08-19T04:53:03;12.52;;;11.63;;
12768;SDS011;6448;48.916;8.990;2022-08-19T04:54:05;12.80;;;11.90;;
12768;SDS011;6448;48.916;8.990;2022-08-19T04:55:06;13.18;;;12.27;;
12768;SDS011;6448;48.916;8.990;2022-08-19T04:56:10;12.70;;;11.75;;
12768;SDS011;6448;48.916;8.990;2022-08-19T04:57:12;13.20;;;12.20;;
12768;SDS011;6448;48.916;8.990;2022-08-19T04:58:14;13.02;;;12.02;;
12768;SDS011;6448;48.916;8.990;2022-08-19T04:59:16;12.55;;;11.65;;
12768;SDS011;6448;48.916;8.990;2022-08-19T05:00:20;12.52;;;11.52;;
12768;SDS011;6448;48.916;8.990;2022-08-19T05:01:24;12.75;;;11.85;;
12768;SDS011;6448;48.916;8.990;2022-08-19T05:02:28;12.43;;;11.63;;
12768;SDS011;6448;48.916;8.990;2022-08-19T05:03:29;12.27;;;11.38;;
12768;SDS011;6448;48.916;8.990;2022-08-19T05:04:33;12.40;;;11.50;;
12768;SDS011;6448;48.916;8.990;2022-08-19T05:05:38;12.48;;;11.57;;
12768;SDS011;6448;48.916;8.990;2022-08-19T05:06:40;12.68;;;11.77;;
12768;SDS011;6448;48.916;8.990;2022-08-19T05:07:41;12.55;;;11.57;;
12768;SDS011;6448;48.916;8.990;2022-08-19T05:08:43;12.52;;;11.63;;
12768;SDS011;6448;48.916;8.990;2022-08-19T05:09:44;12.27;;;11.38;;
12768;SDS011;6448;48.916;8.990;2022-08-19T05:10:46;11.82;;;11.02;;
12768;SDS011;6448;48.916;8.990;2022-08-19T05:11:48;12.57;;;11.68;;
12768;SDS011;6448;48.916;8.990;2022-08-19T05:12:53;11.85;;;11.05;;
12768;SDS011;6448;48.916;8.990;2022-08-19T05:13:54;12.07;;;11.27;;
12768;SDS011;6448;48.916;8.990;2022-08-19T05:14:56;12.25;;;11.40;;
12768;SDS011;6448;48.916;8.990;2022-08-19T05:15:58;12.93;;;12.02;;
12768;SDS011;6448;48.916;8.990;2022-08-19T05:17:02;12.43;;;11.52;;
12768;SDS011;6448;48.916;8.990;2022-08-19T05:18:03;12.65;;;11.75;;
12768;SDS011;6448;48.916;8.990;2022-08-19T05:19:22;12.88;;;11.98;;
12768;SDS011;6448;48.916;8.990;2022-08-19T05:20:41;13.05;;;12.15;;
12768;SDS011;6448;48.916;8.990;2022-08-19T05:22:00;12.55;;;11.65;;
12768;SDS011;6448;48.916;8.990;2022-08-19T05:23:19;12.82;;;11.88;;
12768;SDS011;6448;48.916;8.990;2022-08-19T05:24:22;12.52;;;11.73;;
12768;SDS011;6448;48.916;8.990;2022-08-19T05:25:23;12.68;;;11.75;;
12768;SDS011;6448;48.916;8.990;2022-08-19T05:26:25;13.18;;;12.27;;
12768;SDS011;6448;48.916;8.990;2022-08-19T05:27:26;13.13;;;12.13;;
12768;SDS011;6448;48.916;8.990;2022-08-19T05:28:28;12.87;;;11.90;;
12768;SDS011;6448;48.916;8.990;2022-08-19T05:29:29;13.13;;;12.13;;
12768;SDS011;6448;48.916;8.990;2022-08-19T05:30:31;13.23;;;12.27;;
12768;SDS011;6448;48.916;8.990;2022-08-19T05:31:34;12.88;;;11.98;;
12768;SDS011;6448;48.916;8.990;2022-08-19T05:32:38;12.77;;;11.77;;
12768;SDS011;6448;48.916;8.990;2022-08-19T05:33:40;12.63;;;11.73;;
12768;SDS011;6448;48.916;8.990;2022-08-19T05:34:41;12.80;;;11.90;;
12768;SDS011;6448;48.916;8.990;2022-08-19T05:35:42;13.07;;;12.18;;
12768;SDS011;6448;48.916;8.990;2022-08-19T05:36:44;12.55;;;11.65;;
12768;SDS011;6448;48.916;8.990;2022-08-19T05:37:45;13.23;;;12.32;;
12768;SDS011;6448;48.916;8.990;2022-08-19T05:38:47;12.68;;;11.77;;
12768;SDS011;6448;48.916;8.990;2022-08-19T05:39:49;12.95;;;12.05;;
12768;SDS011;6448;48.916;8.990;2022-08-19T05:40:51;12.85;;;11.95;;
12768;SDS011;6448;48.916;8.990;2022-08-19T05:41:52;12.38;;;11.48;;
12768;SDS011;6448;48.916;8.990;2022-08-19T05:42:56;12.68;;;11.77;;
12768;SDS011;6448;48.916;8.990;2022-08-19T05:43:58;12.70;;;11.80;;
12768;SDS011;6448;48.916;8.990;2022-08-19T05:45:02;12.38;;;11.48;;
12768;SDS011;6448;48.916;8.990;2022-08-19T05:46:04;12.88;;;11.98;;
12768;SDS011;6448;48.916;8.990;2022-08-19T05:47:08;12.82;;;11.93;;
12768;SDS011;6448;48.916;8.990;2022-08-19T05:48:12;12.52;;;11.63;;
12768;SDS011;6448;48.916;8.990;2022-08-19T05:49:14;12.93;;;12.02;;
12768;SDS011;6448;48.916;8.990;2022-08-19T05:50:16;13.07;;;12.18;;
12768;SDS011;6448;48.916;8.990;2022-08-19T05:51:17;12.45;;;11.55;;
12768;SDS011;6448;48.916;8.990;2022-08-19T05:52:18;13.00;;;12.10;;
12768;SDS011;6448;48.916;8.990;2022-08-19T05:53:20;12.50;;;11.60;;
12768;SDS011;6448;48.916;8.990;2022-08-19T05:54:21;13.10;;;12.20;;
12768;SDS011;6448;48.916;8.990;2022-08-19T05:55:24;12.55;;;11.65;;
12768;SDS011;6448;48.916;8.990;2022-08-19T05:56:25;12.27;;;11.48;;
12768;SDS011;6448;48.916;8.990;2022-08-19T05:57:26;12.93;;;12.00;;
12768;SDS011;6448;48.916;8.990;2022-08-19T05:58:28;13.20;;;12.20;;
12768;SDS011;6448;48.916;8.990;2022-08-19T05:59:29;12.85;;;11.95;;
12768;SDS011;6448;48.916;8.990;2022-08-19T06:00:31;13.30;;;12.40;;
12768;SDS011;6448;48.916;8.990;2022-08-19T06:01:32;12.68;;;11.77;;
12768;SDS011;6448;48.916;8.990;2022-08-19T06:02:33;13.15;;;12.20;;
12768;SDS011;6448;48.916;8.990;2022-08-19T06:03:36;12.98;;;12.07;;
12768;SDS011;6448;48.916;8.990;2022-08-19T06:04:39;12.82;;;11.93;;
12768;SDS011;6448;48.916;8.990;2022-08-19T06:05:42;12.57;;;11.68;;
12768;SDS011;6448;48.916;8.990;2022-08-19T06:06:43;12.90;;;11.95;;
12768;SDS011;6448;48.916;8.990;2022-08-19T06:07:45;12.48;;;11.57;;
12768;SDS011;6448;48.916;8.990;2022-08-19T06:08:46;12.43;;;11.52;;
12768;SDS011;6448;48.916;8.990;2022-08-19T06:09:50;12.90;;;11.90;;
12768;SDS011;6448;48.916;8.990;2022-08-19T06:10:50;12.32;;;11.43;;
12768;SDS011;6448;48.916;8.990;2022-08-19T06:11:53;13.13;;;12.23;;
12768;SDS011;6448;48.916;8.990;2022-08-19T06:12:59;12.03;;;11.13;;
12768;SDS011;6448;48.916;8.990;2022-08-19T06:14:00;13.00;;;12.00;;
12768;SDS011;6448;48.916;8.990;2022-08-19T06:15:06;12.85;;;11.95;;
12768;SDS011;6448;48.916;8.990;2022-08-19T06:16:10;12.30;;;11.40;;